createdAt,value
2022-10-18T03:44:46.219Z,100.00
2022-10-18T03:47:49.144Z,100.00
2022-10-18T03:50:51.678Z,100.00
2022-10-18T03:53:54.462Z,100.00
2022-10-18T03:56:56.972Z,100.00
2022-10-18T03:59:59.751Z,100.00
2022-10-18T04:03:03.249Z,100.00
2022-10-18T04:06:07.874Z,100.00
2022-10-18T04:09:10.638Z,100.00
2022-10-18T04:12:13.494Z,100.00
2022-10-18T04:15:16.111Z,100.00
2022-10-18T04:18:18.928Z,100.00
2022-10-18T04:21:21.491Z,100.00
2022-10-18T04:24:24.520Z,100.00
2022-10-18T04:27:27.040Z,100.00
2022-10-18T04:30:30.019Z,100.00
2022-10-18T04:33:32.721Z,100.00
2022-10-18T04:36:35.563Z,100.00
2022-10-18T04:39:38.144Z,100.00
2022-10-18T04:42:40.866Z,100.00
2022-10-18T04:45:45.725Z,100.00
2022-10-18T04:48:48.580Z,100.00
2022-10-18T04:51:51.034Z,100.00
2022-10-18T04:54:53.724Z,100.00
2022-10-18T04:57:56.288Z,100.00
2022-10-18T05:00:59.795Z,100.00
2022-10-18T05:04:02.288Z,100.00
2022-10-18T05:07:06.631Z,100.00
2022-10-18T05:10:10.114Z,100.00
2022-10-18T05:13:13.139Z,100.00
2022-10-18T05:16:16.151Z,100.00
2022-10-18T05:19:18.964Z,100.00
2022-10-18T05:22:21.471Z,100.00
2022-10-18T05:25:24.900Z,100.00
2022-10-18T05:28:39.648Z,100.00
2022-10-18T05:31:43.124Z,100.00
2022-10-18T05:34:46.285Z,100.00
2022-10-18T05:37:49.087Z,100.00
2022-10-18T05:40:54.402Z,100.00
2022-10-18T05:43:57.236Z,100.00
2022-10-18T05:46:59.675Z,100.00
2022-10-18T05:50:02.725Z,100.00
2022-10-18T05:53:12.537Z,100.00
2022-10-18T05:56:21.212Z,100.00
2022-10-18T05:59:24.011Z,100.00
2022-10-18T06:02:26.776Z,100.00
2022-10-18T06:05:29.601Z,100.00
2022-10-18T06:08:32.627Z,100.00
2022-10-18T06:11:35.912Z,100.00
2022-10-18T06:14:38.370Z,100.00
2022-10-18T06:17:41.213Z,100.00
2022-10-18T06:20:44.739Z,100.00
2022-10-18T06:23:57.594Z,100.00
2022-10-18T06:27:00.140Z,100.00
2022-10-18T06:30:03.856Z,100.00
2022-10-18T06:33:06.471Z,100.00
2022-10-18T06:36:22.120Z,100.00
2022-10-18T06:39:26.183Z,100.00
2022-10-18T06:42:29.057Z,100.00
2022-10-18T06:45:31.552Z,100.00
2022-10-18T06:48:36.247Z,100.00
2022-10-18T06:51:39.125Z,100.00
2022-10-18T06:54:42.090Z,100.00
2022-10-18T06:57:46.339Z,100.00
2022-10-18T07:00:49.060Z,100.00
2022-10-18T07:03:53.657Z,100.00
2022-10-18T07:06:56.771Z,100.00
2022-10-18T07:10:01.489Z,100.00
2022-10-18T07:13:27.428Z,100.00
2022-10-18T07:16:26.766Z,100.00
2022-10-18T07:19:29.462Z,100.00
2022-10-18T07:22:31.884Z,100.00
2022-10-18T07:25:35.458Z,100.00
2022-10-18T07:28:38.721Z,100.00
2022-10-18T07:31:41.813Z,100.00
2022-10-18T07:34:44.303Z,100.00
2022-10-18T07:37:47.153Z,100.00
2022-10-18T07:40:57.499Z,100.00
2022-10-18T07:44:01.576Z,94.91
2022-10-18T07:47:04.060Z,88.11
2022-10-18T07:50:07.431Z,82.48
2022-10-18T07:53:10.524Z,81.14
2022-10-18T07:56:16.505Z,77.64
2022-10-18T07:59:19.136Z,79.17
2022-10-18T08:02:24.814Z,79.35
2022-10-18T08:05:28.889Z,81.89
2022-10-18T08:08:31.855Z,80.18
2022-10-18T08:11:34.787Z,77.23
2022-10-18T08:14:37.419Z,76.43
2022-10-18T08:17:40.189Z,74.88
2022-10-18T08:20:44.988Z,73.48
2022-10-18T08:23:48.997Z,72.70
2022-10-18T08:26:51.509Z,70.98
2022-10-18T08:29:54.332Z,70.55
2022-10-18T08:32:56.893Z,72.30
2022-10-18T08:36:01.380Z,72.91
2022-10-18T08:39:04.042Z,70.99
2022-10-18T08:42:42.715Z,68.62
2022-10-18T08:45:45.542Z,66.71
2022-10-18T08:48:50.921Z,66.55
2022-10-18T08:51:53.768Z,64.39
2022-10-18T08:55:10.316Z,63.89
2022-10-18T08:58:24.863Z,62.40
2022-10-18T09:01:36.656Z,63.36
2022-10-18T09:05:14.395Z,62.73
2022-10-18T09:08:27.782Z,60.69
2022-10-18T09:11:47.322Z,56.53
2022-10-18T09:15:18.129Z,56.33
2022-10-18T09:18:42.301Z,54.34
2022-10-18T09:21:53.672Z,54.49
2022-10-18T09:25:15.180Z,55.10
2022-10-18T09:28:26.992Z,53.17
2022-10-18T09:31:52.759Z,52.97
2022-10-18T09:35:01.018Z,51.87
2022-10-18T09:38:09.366Z,53.33
2022-10-18T09:41:34.631Z,50.06
2022-10-18T09:44:41.955Z,50.78
2022-10-18T09:47:51.159Z,49.55
2022-10-18T09:50:59.301Z,49.93
2022-10-18T09:54:19.195Z,47.21
2022-10-18T09:57:31.467Z,48.34
2022-10-18T10:00:43.424Z,48.28
2022-10-18T10:03:46.399Z,47.65
2022-10-18T10:06:50.458Z,48.18
2022-10-18T10:09:59.611Z,48.41
2022-10-18T10:13:14.370Z,48.70
2022-10-18T10:16:17.854Z,47.45
2022-10-18T10:19:23.069Z,48.15
2022-10-18T10:22:47.751Z,48.26
2022-10-18T10:25:56.675Z,47.54
2022-10-18T10:28:59.898Z,46.77
2022-10-18T10:32:03.958Z,46.81
2022-10-18T10:35:41.406Z,44.57
2022-10-18T10:39:18.375Z,42.64
2022-10-18T10:42:21.220Z,43.02
2022-10-18T10:45:25.944Z,45.30
2022-10-18T10:48:33.720Z,43.97
2022-10-18T10:51:39.361Z,43.14
2022-10-18T10:54:50.327Z,45.48
2022-10-18T10:57:56.460Z,43.37
2022-10-18T11:01:19.126Z,42.62
2022-10-18T11:04:30.425Z,41.68
2022-10-18T11:07:46.628Z,43.93
2022-10-18T11:11:02.888Z,41.87
2022-10-18T11:14:29.548Z,41.50
2022-10-18T11:17:44.067Z,44.22
2022-10-18T11:20:56.120Z,43.05
2022-10-18T11:24:00.117Z,42.71
2022-10-18T11:27:18.043Z,41.43
2022-10-18T11:30:55.463Z,41.59
2022-10-18T11:34:43.653Z,42.06
2022-10-18T11:37:57.351Z,43.83
2022-10-18T11:41:39.923Z,42.32
2022-10-18T11:45:00.427Z,43.12
2022-10-18T11:48:40.039Z,40.79
2022-10-18T11:52:09.952Z,41.50
2022-10-18T11:55:19.793Z,40.61
2022-10-18T11:59:00.328Z,43.47
2022-10-18T12:02:21.628Z,42.44
2022-10-18T12:05:25.255Z,43.45
2022-10-18T12:08:49.977Z,41.13
2022-10-18T12:11:58.443Z,41.25
2022-10-18T12:15:13.580Z,42.73
2022-10-18T12:18:21.614Z,40.19
2022-10-18T12:21:26.656Z,39.85
2022-10-18T12:24:31.999Z,40.89
2022-10-18T12:27:40.912Z,41.74
2022-10-18T12:31:18.682Z,40.35
2022-10-18T12:34:21.142Z,39.73
2022-10-18T12:38:05.678Z,40.54
2022-10-18T12:41:20.599Z,38.96
2022-10-18T12:44:33.185Z,39.75
2022-10-18T12:47:36.713Z,38.69
2022-10-18T12:50:43.150Z,37.36
2022-10-18T12:53:49.189Z,37.73
2022-10-18T12:56:52.441Z,35.30
2022-10-18T12:59:55.175Z,36.04
2022-10-18T13:03:27.412Z,36.49
2022-10-18T13:06:59.312Z,34.68
2022-10-18T13:10:12.360Z,32.11
2022-10-18T13:13:39.200Z,28.24
2022-10-18T13:17:06.950Z,24.71
2022-10-18T13:20:38.892Z,20.19
2022-10-18T13:23:53.677Z,16.78
2022-10-18T13:27:35.519Z,15.31
2022-10-18T13:30:55.518Z,14.84
2022-10-18T13:34:20.681Z,13.08
2022-10-18T13:37:25.750Z,12.22
2022-10-18T13:40:32.476Z,12.10
2022-10-18T13:43:54.114Z,12.29
2022-10-18T13:46:56.396Z,11.10
2022-10-18T13:50:17.115Z,11.95
2022-10-18T13:53:22.628Z,11.49
2022-10-18T13:57:03.065Z,11.73
2022-10-18T14:00:37.855Z,11.18
2022-10-18T14:04:21.884Z,12.17
2022-10-18T14:07:27.043Z,11.21
2022-10-18T14:11:07.965Z,11.32
2022-10-18T14:14:41.572Z,11.35
2022-10-18T14:17:47.980Z,11.17
2022-10-18T14:21:12.711Z,11.53
2022-10-18T14:24:23.344Z,12.44
2022-10-18T14:27:28.709Z,14.45
2022-10-18T14:30:33.174Z,17.69
2022-10-18T14:33:39.051Z,20.39
2022-10-18T14:36:45.904Z,23.34
2022-10-18T14:39:48.404Z,25.84
2022-10-18T14:42:51.220Z,28.08
2022-10-18T14:45:53.838Z,29.89
2022-10-18T14:49:04.293Z,31.21
2022-10-18T14:52:13.862Z,33.59
2022-10-18T14:55:32.547Z,33.91
2022-10-18T14:58:37.865Z,34.99
2022-10-18T15:02:10.822Z,36.48
2022-10-18T15:05:16.304Z,36.79
2022-10-18T15:08:19.998Z,37.53
2022-10-18T15:11:24.444Z,38.21
2022-10-18T15:14:28.786Z,38.92
2022-10-18T15:17:34.142Z,39.29
2022-10-18T15:20:42.616Z,40.46
2022-10-18T15:23:45.226Z,40.65
2022-10-18T15:26:50.243Z,41.02
2022-10-18T15:29:52.906Z,41.73
2022-10-18T15:32:58.807Z,42.36
